Main page
METAR-TAF:

METAR-TAF

Airports :

Trondheim Airport. Værnes

Trondheim, Norway

latitude: 63-28N, longitude: 010-56E, elevation: 1 m

Current weather observation

The report was made 33 minutes ago, at 18:20 UTC
Wind 5 kt from the North/Northwest
Temperature 13°C
Humidity 94%
Pressure 1016 hPa
Visibility 10 km or more
Scattered clouds at a height of 1400 ft
Broken clouds at a height of 1900 ft
light drizzle

METAR: ENVA 231820Z 33005KT 9999 -DZ SCT014 BKN019 13/12 Q1016 REDZ TEMPO BKN012 RMK WIND 670FT 32007KT

Time: 20:53 (18:53 UTC)

Forecast

The report was made 1 hour and 53 minutes ago, at 17:00 UTC
Forecast valid from 23 at 18 UTC to 24 at 18 UTC
Wind 8 kt from the West/Northwest
Visibility 10 km or more
Scattered clouds at a height of 1200 ft
Broken clouds at a height of 2500 ft
light rain showers
Temporary
from 23 at 18 UTC to 23 at 24 UTC
Broken clouds at a height of 1200 ft

TAF: ENVA 231700Z 2318/2418 30008KT 9999 -SHRA SCT012 BKN025 TEMPO 2318/2324 BKN012

Weather observations and forecasts of more than 4000 airports (METAR and TAF reports).

The available stations are represented by yellow and red dots on the map.

Hover mouse over dot to see the name of the station.

Then click to see weather observations and forecasts.

To change the map : click on the green buttons with a black cross to zoom in, on the green button with a dash to zoom out, or on the green arrows for adjacent maps.


METAR-TAF: